Time;durP1;ratioP1;P1;durP2;ratioP2;P2;SDS_P1;SDS_P2;PMS_P1;PMS_P2;Temp;Humidity;BMP_temperature;BMP_pressure;BME280_temperature;BME280_humidity;BME280_pressure;Samples;Min_cycle;Max_cycle;Signal;HPM_P1;HPM_P2
2023/03/23 00:09:41;;;;;;;0.60;0.47;;;;;;;;;;20849761;28;20268;-70
2023/03/23 00:19:45;;;;;;;0.90;0.40;;;;;;;;;;20864419;28;20439;-70
2023/03/23 00:29:48;;;;;;;1.57;0.50;;;;;;;;;;20847772;28;20226;-70
2023/03/23 00:39:51;;;;;;;0.40;0.30;;;;;;;;;;20862560;28;20281;-70
2023/03/23 00:49:55;;;;;;;0.50;0.40;;;;;;;;;;20846459;28;20210;-70
2023/03/23 00:59:57;;;;;;;0.40;0.30;;;;;;;;;;20844368;28;20561;-70
2023/03/23 01:10:00;;;;;;;0.60;0.30;;;;;;;;;;20843527;28;20206;-70
2023/03/23 01:20:04;;;;;;;0.90;0.50;;;;;;;;;;20859489;28;20213;-70
2023/03/23 01:30:07;;;;;;;0.30;0.30;;;;;;;;;;20842886;28;20314;-70
2023/03/23 01:40:09;;;;;;;0.30;0.30;;;;;;;;;;20858553;28;20287;-71
2023/03/23 01:50:12;;;;;;;0.93;0.50;;;;;;;;;;20873427;28;20217;-70
2023/03/23 02:00:15;;;;;;;0.40;0.40;;;;;;;;;;20833982;28;20284;-70
2023/03/23 02:10:20;;;;;;;0.90;0.50;;;;;;;;;;20863030;28;20210;-70
2023/03/23 02:20:52;;;;;;;0.40;0.30;;;14.50;99.90;;;;;;20839041;28;20225;-70
2023/03/23 02:31:12;;;;;;;1.90;0.53;;;;;;;;;;20788315;28;20202;-70
2023/03/23 02:41:15;;;;;;;1.07;0.50;;;14.60;99.90;;;;;;20787628;28;20317;-70
2023/03/23 02:51:18;;;;;;;1.73;0.57;;;;;;;;;;20833698;28;20218;-70
2023/03/23 03:01:26;;;;;;;0.47;0.40;;;14.50;99.90;;;;;;20851082;28;20252;-70
2023/03/23 03:11:28;;;;;;;0.27;0.20;;;;;;;;;;20867705;28;20669;-70
2023/03/23 03:21:31;;;;;;;0.60;0.40;;;;;;;;;;20849924;28;20855;-70
2023/03/23 03:31:37;;;;;;;0.73;0.40;;;;;;;;;;20850186;28;20279;-70
2023/03/23 03:41:40;;;;;;;0.80;0.50;;;;;;;;;;20833811;28;20217;-70
2023/03/23 03:51:42;;;;;;;1.13;0.70;;;;;;;;;;20866530;28;20712;-70
2023/03/23 04:01:53;;;;;;;1.00;0.43;;;;;;;;;;20865610;28;20667;-70
2023/03/23 04:11:56;;;;;;;1.03;0.50;;;;;;;;;;20909435;22;20221;-73
2023/03/23 04:22:16;;;;;;;1.03;0.60;;;;;;;;;;20950274;28;20226;-73
2023/03/23 04:32:19;;;;;;;0.70;0.50;;;;;;;;;;20921359;28;20236;-73
2023/03/23 04:42:27;;;;;;;1.53;0.70;;;;;;;;;;20923260;28;20222;-73
2023/03/23 04:52:51;;;;;;;0.93;0.50;;;;;;;;;;20931644;28;20210;-73
2023/03/23 05:02:55;;;;;;;1.07;0.60;;;;;;;;;;20894855;28;20218;-73
2023/03/23 05:12:58;;;;;;;0.73;0.53;;;;;;;;;;20916357;28;20214;-73
2023/03/23 05:23:00;;;;;;;1.00;0.53;;;;;;;;;;20923875;28;20702;-73
2023/03/23 05:33:08;;;;;;;0.83;0.60;;;;;;;;;;20937568;28;20206;-74
2023/03/23 05:43:32;;;;;;;0.90;0.40;;;;;;;;;;20974385;28;20302;-73
2023/03/23 05:53:57;;;;;;;2.63;0.40;;;;;;;;;;20900846;28;20218;-73
2023/03/23 06:03:59;;;;;;;1.03;0.50;;;;;;;;;;20906139;28;20818;-73
2023/03/23 06:14:10;;;;;;;3.37;0.57;;;;;;;;;;20915429;28;20301;-73
2023/03/23 06:24:12;;;;;;;0.77;0.40;;;;;;;;;;20923600;28;20214;-73
2023/03/23 06:34:14;;;;;;;0.40;0.30;;;;;;;;;;20884714;28;20295;-73
2023/03/23 06:44:35;;;;;;;0.53;0.43;;;;;;;;;;20904428;28;20233;-73
2023/03/23 06:54:37;;;;;;;0.80;0.50;;;;;;;;;;20892835;28;20247;-73
2023/03/23 07:04:41;;;;;;;3.57;0.67;;;;;;;;;;20906647;28;20225;-75
2023/03/23 07:14:52;;;;;;;0.30;0.30;;;;;;;;;;20920600;28;20275;-75
2023/03/23 07:24:54;;;;;;;1.00;0.47;;;;;;;;;;20901612;28;20218;-74
2023/03/23 07:35:04;;;;;;;0.30;0.30;;;14.00;99.90;;;;;;20907326;28;20235;-76
2023/03/23 07:45:30;;;;;;;0.70;0.40;;;14.20;99.90;;;;;;20907218;28;20229;-75
2023/03/23 07:55:33;;;;;;;0.80;0.50;;;;;;;;;;20906775;28;20733;-73
2023/03/23 08:06:00;;;;;;;1.03;0.50;;;;;;;;;;20923834;28;20778;-73
2023/03/23 08:16:27;;;;;;;1.27;0.60;;;;;;;;;;20913790;28;20841;-73
2023/03/23 08:26:58;;;;;;;0.40;0.40;;;;;;;;;;20920233;28;20635;-73
2023/03/23 08:37:09;;;;;;;0.30;0.30;;;;;;;;;;20926613;28;20189;-73
2023/03/23 08:47:23;;;;;;;0.50;0.40;;;;;;;;;;20910361;28;20271;-73
2023/03/23 08:57:57;;;;;;;0.30;0.30;;;;;;;;;;20905458;28;20233;-74
2023/03/23 09:08:18;;;;;;;0.30;0.30;;;;;;;;;;20908986;28;20226;-73
2023/03/23 09:18:19;;;;;;;0.63;0.53;;;;;;;;;;20888631;28;20218;-73
2023/03/23 09:28:21;;;;;;;0.40;0.30;;;;;;;;;;20909083;28;20222;-73
2023/03/23 09:38:24;;;;;;;0.30;0.30;;;;;;;;;;20908247;28;20210;-73
2023/03/23 09:48:54;;;;;;;0.50;0.40;;;14.90;99.90;;;;;;20903231;28;20217;-73
2023/03/23 09:59:15;;;;;;;0.90;0.30;;;;;;;;;;20895798;28;20272;-75
2023/03/23 10:09:18;;;;;;;0.63;0.40;;;;;;;;;;20984967;28;20217;-73
2023/03/23 10:19:41;;;;;;;0.50;0.30;;;;;;;;;;21080011;22;20289;-69
2023/03/23 10:29:47;;;;;;;0.40;0.40;;;;;;;;;;21052265;28;20225;-69
2023/03/23 10:39:56;;;;;;;0.30;0.30;;;;;;;;;;21063530;28;20270;-70
2023/03/23 10:49:59;;;;;;;0.47;0.30;;;;;;;;;;21030789;28;20278;-69
2023/03/23 11:00:22;;;;;;;0.70;0.33;;;;;;;;;;21048245;28;20929;-69
2023/03/23 11:10:26;;;;;;;0.30;0.30;;;;;;;;;;21049445;28;20266;-69
2023/03/23 11:20:29;;;;;;;0.30;0.30;;;;;;;;;;21033623;28;20634;-69
2023/03/23 11:30:31;;;;;;;0.30;0.20;;;;;;;;;;21041084;28;20216;-70
2023/03/23 11:40:35;;;;;;;0.43;0.43;;;;;;;;;;21033385;28;20352;-70
2023/03/23 11:50:52;;;;;;;0.53;0.30;;;;;;;;;;21042831;28;20228;-69
2023/03/23 12:00:54;;;;;;;0.40;0.37;;;;;;;;;;21045119;28;20269;-70
2023/03/23 12:10:56;;;;;;;1.13;0.37;;;;;;;;;;21047365;28;20196;-71
2023/03/23 12:21:15;;;;;;;0.30;0.30;;;;;;;;;;21042382;28;20597;-70
2023/03/23 12:31:23;;;;;;;0.20;0.20;;;;;;;;;;21038396;28;20690;-70
2023/03/23 12:41:32;;;;;;;0.40;0.30;;;;;;;;;;21025793;28;20428;-70
2023/03/23 12:51:34;;;;;;;0.30;0.30;;;;;;;;;;21048877;28;20216;-69
2023/03/23 13:01:43;;;;;;;2.00;0.30;;;;;;;;;;21041108;28;20220;-70
2023/03/23 13:11:46;;;;;;;0.40;0.30;;;;;;;;;;21041161;28;20224;-69
2023/03/23 13:22:13;;;;;;;1.03;0.50;;;15.30;99.90;;;;;;21017030;28;20211;-69
2023/03/23 13:32:17;;;;;;;0.30;0.30;;;;;;;;;;21046677;28;20216;-69
2023/03/23 13:42:22;;;;;;;0.37;0.37;;;15.10;99.90;;;;;;21053039;28;20242;-69
2023/03/23 13:52:43;;;;;;;0.30;0.23;;;;;;;;;;21038338;28;20213;-69
2023/03/23 14:02:45;;;;;;;0.70;0.30;;;;;;;;;;21036491;28;20258;-69
2023/03/23 14:12:53;;;;;;;0.30;0.30;;;;;;;;;;21020705;28;20246;-69
2023/03/23 14:22:56;;;;;;;0.40;0.40;;;;;;;;;;21035671;28;20209;-69
2023/03/23 14:33:12;;;;;;;0.73;0.40;;;15.00;99.90;;;;;;21023812;28;20212;-69
2023/03/23 14:43:17;;;;;;;0.40;0.40;;;;;;;;;;21007858;28;20228;-70
2023/03/23 14:53:38;;;;;;;0.83;0.40;;;;;;;;;;21032558;28;20232;-69
2023/03/23 15:03:43;;;;;;;0.77;0.40;;;15.10;99.90;;;;;;21032075;28;20277;-69
2023/03/23 15:13:51;;;;;;;0.30;0.30;;;;;;;;;;21034262;28;20335;-70
2023/03/23 15:23:52;;;;;;;0.47;0.37;;;15.40;99.90;;;;;;21032728;28;20216;-69
2023/03/23 15:33:59;;;;;;;3.40;0.93;;;15.20;99.90;;;;;;21032561;28;20568;-70
2023/03/23 15:44:11;;;;;;;1.33;0.60;;;;;;;;;;21015076;28;20220;-70
2023/03/23 15:54:15;;;;;;;0.50;0.43;;;;;;;;;;21032055;28;20265;-69
2023/03/23 16:04:18;;;;;;;0.50;0.40;;;;;;;;;;21048135;28;20216;-68
2023/03/23 16:14:20;;;;;;;0.50;0.40;;;;;;;;;;21030787;28;20220;-69
2023/03/23 16:24:21;;;;;;;0.70;0.50;;;;;;;;;;21032348;28;20216;-69
2023/03/23 16:34:27;;;;;;;1.43;0.63;;;;;;;;;;21037580;28;20350;-69
2023/03/23 16:58:27;;;;;;;1.43;0.50;;;;;;;;;;21235885;27;20571;-70
2023/03/23 17:08:29;;;;;;;2.43;0.90;;;;;;;;;;21127115;27;20555;-70
2023/03/23 17:18:31;;;;;;;1.60;1.17;;;;;;;;;;21144888;27;20583;-70
2023/03/23 17:28:34;;;;;;;1.60;0.80;;;;;;;;;;21148107;27;20223;-70
2023/03/23 17:38:36;;;;;;;1.03;0.70;;;;;;;;;;21111699;27;20548;-69
2023/03/23 17:48:37;;;;;;;3.33;1.30;;;15.00;99.90;;;;;;21145214;27;20563;-70
2023/03/23 17:58:39;;;;;;;1.77;1.17;;;14.80;99.90;;;;;;21111551;27;20196;-71
2023/03/23 18:08:41;;;;;;;1.30;0.80;;;17.30;99.90;;;;;;21124568;28;20277;-70
2023/03/23 18:18:45;;;;;;;1.03;0.53;;;;;;;;;;21085434;28;20265;-71
2023/03/23 18:28:48;;;;;;;0.83;0.60;;;;;;;;;;21084080;28;20261;-70
2023/03/23 18:38:50;;;;;;;2.90;1.47;;;;;;;;;;21103110;28;20196;-70
2023/03/23 18:48:51;;;;;;;2.40;1.03;;;;;;;;;;21101057;28;20233;-70
2023/03/23 18:58:53;;;;;;;1.57;1.00;;;;;;;;;;20995213;28;20221;-70
2023/03/23 19:08:56;;;;;;;2.30;0.80;;;;;;;;;;21043518;28;20224;-71
2023/03/23 19:19:00;;;;;;;1.20;0.87;;;14.60;99.90;;;;;;21017987;28;20675;-71
2023/03/23 19:29:02;;;;;;;1.20;0.77;;;;;;;;;;21051460;28;20258;-70
2023/03/23 19:39:05;;;;;;;0.73;0.53;;;;;;;;;;21035156;28;20234;-70
2023/03/23 19:49:07;;;;;;;1.17;0.63;;;;;;;;;;21086091;28;20239;-69
2023/03/23 19:59:13;;;;;;;2.97;1.90;;;14.40;99.90;;;;;;21100419;28;20220;-70
2023/03/23 20:09:15;;;;;;;1.87;1.33;;;15.80;99.90;;;;;;21118026;28;20276;-69
2023/03/23 20:19:18;;;;;;;2.90;1.30;;;;;;;;;;21101192;28;20292;-69
2023/03/23 20:29:20;;;;;;;2.00;1.13;;;;;;;;;;21061368;28;20208;-69
2023/03/23 20:39:22;;;;;;;2.07;1.20;;;;;;;;;;21063813;28;20215;-69
2023/03/23 20:49:24;;;;;;;1.77;1.30;;;;;;;;;;21017878;28;20749;-69
2023/03/23 20:59:26;;;;;;;2.30;1.30;;;;;;;;;;21015219;28;20270;-69
2023/03/23 21:09:29;;;;;;;1.90;1.30;;;;;;;;;;21010474;28;20235;-69
2023/03/23 21:19:31;;;;;;;2.13;1.20;;;14.40;99.90;;;;;;20944887;28;20699;-69
2023/03/23 21:29:34;;;;;;;2.57;1.50;;;;;;;;;;20944591;28;20259;-69
2023/03/23 21:39:35;;;;;;;2.30;1.27;;;;;;;;;;20934683;28;20711;-69
2023/03/23 21:49:37;;;;;;;2.50;1.10;;;14.20;99.90;;;;;;20986349;28;20691;-70
2023/03/23 21:59:39;;;;;;;1.80;1.20;;;;;;;;;;20994263;28;20216;-69
2023/03/23 22:09:43;;;;;;;1.97;1.10;;;;;;;;;;21057571;28;20254;-69
2023/03/23 22:19:45;;;;;;;1.73;1.10;;;;;;;;;;21056252;28;20223;-69
2023/03/23 22:29:47;;;;;;;2.10;1.30;;;;;;;;;;21129707;28;20245;-69
2023/03/23 22:39:49;;;;;;;2.90;1.17;;;;;;;;;;21128491;28;20215;-69
2023/03/23 22:49:51;;;;;;;1.63;1.33;;;;;;;;;;21111036;28;20223;-69
2023/03/23 22:59:52;;;;;;;1.53;1.07;;;;;;;;;;21126984;28;20255;-69
2023/03/23 23:09:54;;;;;;;2.60;1.70;;;;;;;;;;21109190;28;20204;-69
2023/03/23 23:19:57;;;;;;;1.90;1.20;;;;;;;;;;21124903;28;20272;-69
2023/03/23 23:29:59;;;;;;;2.73;1.17;;;;;;;;;;21130165;22;20228;-73
2023/03/23 23:40:01;;;;;;;45.90;24.90;;;;;;;;;;20998527;28;20221;-73
2023/03/23 23:50:05;;;;;;;11.47;3.43;;;13.70;99.90;;;;;;21060858;28;20745;-72
